sensor_id;sensor_type;location;lat;lon;timestamp;P1;durP1;ratioP1;P2;durP2;ratioP2
6828;SDS011;17930;48.592;8.868;2022-10-03T00:00:30;2.97;;;1.30;;
6828;SDS011;17930;48.592;8.868;2022-10-03T00:06:00;2.13;;;1.20;;
6828;SDS011;17930;48.592;8.868;2022-10-03T00:08:46;1.67;;;1.00;;
6828;SDS011;17930;48.592;8.868;2022-10-03T00:11:27;1.30;;;1.03;;
6828;SDS011;17930;48.592;8.868;2022-10-03T00:14:07;1.80;;;0.87;;
6828;SDS011;17930;48.592;8.868;2022-10-03T00:16:42;0.53;;;0.53;;
6828;SDS011;17930;48.592;8.868;2022-10-03T00:19:19;1.03;;;0.90;;
6828;SDS011;17930;48.592;8.868;2022-10-03T00:22:00;3.57;;;1.30;;
6828;SDS011;17930;48.592;8.868;2022-10-03T00:24:40;2.23;;;1.23;;
6828;SDS011;17930;48.592;8.868;2022-10-03T00:27:16;1.07;;;0.73;;
6828;SDS011;17930;48.592;8.868;2022-10-03T00:30:04;0.90;;;0.77;;
6828;SDS011;17930;48.592;8.868;2022-10-03T00:32:44;0.87;;;0.80;;
6828;SDS011;17930;48.592;8.868;2022-10-03T00:35:28;1.33;;;0.73;;
6828;SDS011;17930;48.592;8.868;2022-10-03T00:38:16;1.10;;;0.83;;
6828;SDS011;17930;48.592;8.868;2022-10-03T00:40:57;0.73;;;0.50;;
6828;SDS011;17930;48.592;8.868;2022-10-03T00:47:08;1.20;;;1.10;;
6828;SDS011;17930;48.592;8.868;2022-10-03T00:52:58;1.47;;;0.80;;
6828;SDS011;17930;48.592;8.868;2022-10-03T00:55:41;2.20;;;1.03;;
6828;SDS011;17930;48.592;8.868;2022-10-03T00:58:22;0.50;;;0.40;;
6828;SDS011;17930;48.592;8.868;2022-10-03T01:01:18;0.80;;;0.80;;
6828;SDS011;17930;48.592;8.868;2022-10-03T01:03:51;1.23;;;0.77;;
6828;SDS011;17930;48.592;8.868;2022-10-03T01:06:32;1.33;;;1.23;;
6828;SDS011;17930;48.592;8.868;2022-10-03T01:09:10;1.23;;;1.10;;
6828;SDS011;17930;48.592;8.868;2022-10-03T01:11:54;0.97;;;0.77;;
6828;SDS011;17930;48.592;8.868;2022-10-03T01:14:32;3.17;;;1.30;;
6828;SDS011;17930;48.592;8.868;2022-10-03T01:17:15;1.37;;;0.60;;
6828;SDS011;17930;48.592;8.868;2022-10-03T01:19:56;1.47;;;0.80;;
6828;SDS011;17930;48.592;8.868;2022-10-03T01:22:35;2.27;;;1.17;;
6828;SDS011;17930;48.592;8.868;2022-10-03T01:25:31;0.67;;;0.57;;
6828;SDS011;17930;48.592;8.868;2022-10-03T01:28:15;3.10;;;1.20;;
6828;SDS011;17930;48.592;8.868;2022-10-03T01:31:12;1.20;;;1.07;;
6828;SDS011;17930;48.592;8.868;2022-10-03T01:33:43;1.00;;;0.57;;
6828;SDS011;17930;48.592;8.868;2022-10-03T01:36:18;1.37;;;1.00;;
6828;SDS011;17930;48.592;8.868;2022-10-03T01:38:52;1.57;;;1.00;;
6828;SDS011;17930;48.592;8.868;2022-10-03T01:41:27;2.43;;;1.33;;
6828;SDS011;17930;48.592;8.868;2022-10-03T01:44:15;1.00;;;0.90;;
6828;SDS011;17930;48.592;8.868;2022-10-03T01:46:49;0.80;;;0.80;;
6828;SDS011;17930;48.592;8.868;2022-10-03T01:49:22;2.33;;;1.00;;
6828;SDS011;17930;48.592;8.868;2022-10-03T01:51:54;0.77;;;0.70;;
6828;SDS011;17930;48.592;8.868;2022-10-03T01:54:28;0.90;;;0.57;;
6828;SDS011;17930;48.592;8.868;2022-10-03T01:57:07;0.53;;;0.50;;
6828;SDS011;17930;48.592;8.868;2022-10-03T01:59:43;1.00;;;0.80;;
6828;SDS011;17930;48.592;8.868;2022-10-03T02:02:15;0.83;;;0.83;;
6828;SDS011;17930;48.592;8.868;2022-10-03T02:04:50;1.27;;;0.80;;
6828;SDS011;17930;48.592;8.868;2022-10-03T02:07:23;1.13;;;0.53;;
6828;SDS011;17930;48.592;8.868;2022-10-03T02:09:58;0.77;;;0.63;;
6828;SDS011;17930;48.592;8.868;2022-10-03T02:12:33;0.90;;;0.63;;
6828;SDS011;17930;48.592;8.868;2022-10-03T02:15:10;1.00;;;0.50;;
6828;SDS011;17930;48.592;8.868;2022-10-03T02:17:45;0.80;;;0.63;;
6828;SDS011;17930;48.592;8.868;2022-10-03T02:20:22;1.17;;;0.53;;
6828;SDS011;17930;48.592;8.868;2022-10-03T02:22:54;0.97;;;0.60;;
6828;SDS011;17930;48.592;8.868;2022-10-03T02:25:24;1.00;;;0.83;;
6828;SDS011;17930;48.592;8.868;2022-10-03T02:34:32;1.10;;;0.93;;
6828;SDS011;17930;48.592;8.868;2022-10-03T02:37:35;0.63;;;0.63;;
6828;SDS011;17930;48.592;8.868;2022-10-03T02:40:25;1.23;;;0.70;;
6828;SDS011;17930;48.592;8.868;2022-10-03T02:43:17;1.13;;;0.60;;
6828;SDS011;17930;48.592;8.868;2022-10-03T02:46:09;0.77;;;0.57;;
6828;SDS011;17930;48.592;8.868;2022-10-03T02:54:55;0.50;;;0.50;;
6828;SDS011;17930;48.592;8.868;2022-10-03T03:03:59;0.63;;;0.53;;
6828;SDS011;17930;48.592;8.868;2022-10-03T03:06:46;0.70;;;0.70;;
6828;SDS011;17930;48.592;8.868;2022-10-03T03:12:41;0.77;;;0.67;;
6828;SDS011;17930;48.592;8.868;2022-10-03T03:15:45;5.33;;;0.83;;
6828;SDS011;17930;48.592;8.868;2022-10-03T03:18:45;0.50;;;0.50;;
6828;SDS011;17930;48.592;8.868;2022-10-03T03:21:23;1.03;;;0.60;;
6828;SDS011;17930;48.592;8.868;2022-10-03T03:24:11;1.13;;;0.73;;
6828;SDS011;17930;48.592;8.868;2022-10-03T03:26:53;1.43;;;0.97;;
6828;SDS011;17930;48.592;8.868;2022-10-03T03:32:24;0.63;;;0.60;;
6828;SDS011;17930;48.592;8.868;2022-10-03T03:35:06;113.00;;;12.03;;
6828;SDS011;17930;48.592;8.868;2022-10-03T03:37:45;1.00;;;0.77;;
6828;SDS011;17930;48.592;8.868;2022-10-03T03:40:27;2.90;;;2.70;;
6828;SDS011;17930;48.592;8.868;2022-10-03T03:43:25;0.73;;;0.73;;
6828;SDS011;17930;48.592;8.868;2022-10-03T03:46:28;1.17;;;1.03;;
6828;SDS011;17930;48.592;8.868;2022-10-03T03:49:17;0.83;;;0.50;;
6828;SDS011;17930;48.592;8.868;2022-10-03T03:52:00;1.53;;;1.10;;
6828;SDS011;17930;48.592;8.868;2022-10-03T03:55:03;1.47;;;0.97;;
6828;SDS011;17930;48.592;8.868;2022-10-03T03:57:50;1.40;;;1.20;;
6828;SDS011;17930;48.592;8.868;2022-10-03T04:00:29;2.17;;;1.57;;
6828;SDS011;17930;48.592;8.868;2022-10-03T04:03:16;2.00;;;1.30;;
6828;SDS011;17930;48.592;8.868;2022-10-03T04:06:06;3.90;;;1.90;;
6828;SDS011;17930;48.592;8.868;2022-10-03T04:08:52;1.30;;;0.93;;
6828;SDS011;17930;48.592;8.868;2022-10-03T04:11:36;1.47;;;1.13;;
6828;SDS011;17930;48.592;8.868;2022-10-03T04:14:19;0.53;;;0.53;;
6828;SDS011;17930;48.592;8.868;2022-10-03T04:17:07;0.90;;;0.43;;
6828;SDS011;17930;48.592;8.868;2022-10-03T04:20:13;2.27;;;1.17;;
6828;SDS011;17930;48.592;8.868;2022-10-03T04:22:57;0.60;;;0.60;;
6828;SDS011;17930;48.592;8.868;2022-10-03T04:25:41;2.57;;;1.20;;
6828;SDS011;17930;48.592;8.868;2022-10-03T04:28:26;1.07;;;0.87;;
6828;SDS011;17930;48.592;8.868;2022-10-03T04:31:03;2.00;;;1.73;;
6828;SDS011;17930;48.592;8.868;2022-10-03T04:33:40;1.57;;;1.13;;
6828;SDS011;17930;48.592;8.868;2022-10-03T04:36:25;1.37;;;0.90;;
6828;SDS011;17930;48.592;8.868;2022-10-03T04:39:15;1.30;;;1.07;;
6828;SDS011;17930;48.592;8.868;2022-10-03T04:41:49;1.77;;;1.10;;
6828;SDS011;17930;48.592;8.868;2022-10-03T04:44:31;1.57;;;1.27;;
6828;SDS011;17930;48.592;8.868;2022-10-03T04:47:13;2.73;;;1.33;;
6828;SDS011;17930;48.592;8.868;2022-10-03T04:49:46;3.60;;;2.17;;
6828;SDS011;17930;48.592;8.868;2022-10-03T04:52:20;1.93;;;1.03;;
6828;SDS011;17930;48.592;8.868;2022-10-03T04:54:54;1.70;;;1.10;;
6828;SDS011;17930;48.592;8.868;2022-10-03T04:57:30;2.53;;;1.53;;
6828;SDS011;17930;48.592;8.868;2022-10-03T05:00:13;1.80;;;1.17;;
6828;SDS011;17930;48.592;8.868;2022-10-03T05:02:50;1.40;;;1.30;;
6828;SDS011;17930;48.592;8.868;2022-10-03T05:08:21;1.03;;;0.87;;
6828;SDS011;17930;48.592;8.868;2022-10-03T05:13:52;1.77;;;1.30;;
6828;SDS011;17930;48.592;8.868;2022-10-03T05:16:28;3.57;;;1.37;;
6828;SDS011;17930;48.592;8.868;2022-10-03T05:19:34;1.80;;;1.23;;
6828;SDS011;17930;48.592;8.868;2022-10-03T05:22:09;2.50;;;1.33;;
6828;SDS011;17930;48.592;8.868;2022-10-03T05:24:52;1.73;;;1.23;;
6828;SDS011;17930;48.592;8.868;2022-10-03T05:27:50;2.63;;;0.70;;
6828;SDS011;17930;48.592;8.868;2022-10-03T05:30:26;3.70;;;1.73;;
6828;SDS011;17930;48.592;8.868;2022-10-03T05:33:01;2.97;;;1.30;;
6828;SDS011;17930;48.592;8.868;2022-10-03T05:35:36;2.23;;;1.20;;
6828;SDS011;17930;48.592;8.868;2022-10-03T05:41:25;1.30;;;1.13;;
6828;SDS011;17930;48.592;8.868;2022-10-03T05:44:00;3.77;;;1.43;;
6828;SDS011;17930;48.592;8.868;2022-10-03T05:46:44;2.00;;;1.20;;
6828;SDS011;17930;48.592;8.868;2022-10-03T05:49:26;1.70;;;1.20;;
6828;SDS011;17930;48.592;8.868;2022-10-03T05:52:40;0.97;;;0.70;;
6828;SDS011;17930;48.592;8.868;2022-10-03T05:55:34;1.53;;;1.10;;
6828;SDS011;17930;48.592;8.868;2022-10-03T06:04:35;1.53;;;1.20;;
6828;SDS011;17930;48.592;8.868;2022-10-03T06:07:20;1.40;;;1.20;;
6828;SDS011;17930;48.592;8.868;2022-10-03T06:12:48;0.60;;;0.60;;
6828;SDS011;17930;48.592;8.868;2022-10-03T06:15:31;2.17;;;1.13;;
6828;SDS011;17930;48.592;8.868;2022-10-03T06:24:54;1.53;;;0.93;;
6828;SDS011;17930;48.592;8.868;2022-10-03T06:27:52;0.93;;;0.80;;
6828;SDS011;17930;48.592;8.868;2022-10-03T06:30:46;1.77;;;1.17;;
6828;SDS011;17930;48.592;8.868;2022-10-03T06:33:38;1.93;;;1.00;;
6828;SDS011;17930;48.592;8.868;2022-10-03T06:49:18;2.43;;;1.90;;
6828;SDS011;17930;48.592;8.868;2022-10-03T06:52:03;3.10;;;1.60;;
6828;SDS011;17930;48.592;8.868;2022-10-03T06:54:57;3.40;;;2.00;;
6828;SDS011;17930;48.592;8.868;2022-10-03T07:00:57;6.00;;;2.17;;
6828;SDS011;17930;48.592;8.868;2022-10-03T07:06:44;5.03;;;2.90;;
6828;SDS011;17930;48.592;8.868;2022-10-03T07:10:35;4.83;;;3.20;;
6828;SDS011;17930;48.592;8.868;2022-10-03T07:13:19;5.30;;;2.90;;
6828;SDS011;17930;48.592;8.868;2022-10-03T07:16:13;3.83;;;2.03;;
6828;SDS011;17930;48.592;8.868;2022-10-03T07:25:05;5.23;;;3.10;;
6828;SDS011;17930;48.592;8.868;2022-10-03T07:28:04;3.63;;;2.10;;
6828;SDS011;17930;48.592;8.868;2022-10-03T07:30:59;6.20;;;2.90;;
6828;SDS011;17930;48.592;8.868;2022-10-03T07:33:47;5.73;;;2.53;;
6828;SDS011;17930;48.592;8.868;2022-10-03T07:40:25;4.40;;;2.33;;
6828;SDS011;17930;48.592;8.868;2022-10-03T07:52:52;7.90;;;2.93;;
6828;SDS011;17930;48.592;8.868;2022-10-03T07:55:41;7.33;;;3.70;;
6828;SDS011;17930;48.592;8.868;2022-10-03T08:01:33;7.10;;;3.53;;
6828;SDS011;17930;48.592;8.868;2022-10-03T08:04:30;6.17;;;3.03;;
6828;SDS011;17930;48.592;8.868;2022-10-03T08:07:16;5.00;;;3.10;;
6828;SDS011;17930;48.592;8.868;2022-10-03T08:09:57;5.60;;;3.20;;
6828;SDS011;17930;48.592;8.868;2022-10-03T08:12:42;7.90;;;4.07;;
6828;SDS011;17930;48.592;8.868;2022-10-03T08:15:29;5.80;;;3.60;;
6828;SDS011;17930;48.592;8.868;2022-10-03T08:21:10;7.40;;;3.97;;
6828;SDS011;17930;48.592;8.868;2022-10-03T08:23:54;8.43;;;4.60;;
6828;SDS011;17930;48.592;8.868;2022-10-03T08:29:30;8.67;;;3.93;;
6828;SDS011;17930;48.592;8.868;2022-10-03T08:35:16;5.47;;;3.70;;
6828;SDS011;17930;48.592;8.868;2022-10-03T08:38:22;5.70;;;3.10;;
6828;SDS011;17930;48.592;8.868;2022-10-03T08:41:14;8.77;;;3.67;;
6828;SDS011;17930;48.592;8.868;2022-10-03T08:47:09;7.50;;;4.17;;
6828;SDS011;17930;48.592;8.868;2022-10-03T08:50:02;6.80;;;3.77;;
6828;SDS011;17930;48.592;8.868;2022-10-03T08:52:44;8.97;;;4.07;;
6828;SDS011;17930;48.592;8.868;2022-10-03T08:58:19;6.03;;;3.60;;
6828;SDS011;17930;48.592;8.868;2022-10-03T09:01:15;8.73;;;5.40;;
6828;SDS011;17930;48.592;8.868;2022-10-03T09:04:01;10.57;;;4.37;;
6828;SDS011;17930;48.592;8.868;2022-10-03T09:06:47;10.10;;;4.70;;
6828;SDS011;17930;48.592;8.868;2022-10-03T09:09:52;14.80;;;4.87;;
6828;SDS011;17930;48.592;8.868;2022-10-03T09:12:57;9.20;;;4.60;;
6828;SDS011;17930;48.592;8.868;2022-10-03T09:19:06;6.60;;;4.10;;
6828;SDS011;17930;48.592;8.868;2022-10-03T09:22:22;5.83;;;3.53;;
6828;SDS011;17930;48.592;8.868;2022-10-03T09:25:20;5.93;;;4.17;;
6828;SDS011;17930;48.592;8.868;2022-10-03T09:28:07;4.93;;;3.10;;
6828;SDS011;17930;48.592;8.868;2022-10-03T09:30:58;4.10;;;3.37;;
6828;SDS011;17930;48.592;8.868;2022-10-03T09:33:45;4.47;;;3.20;;
6828;SDS011;17930;48.592;8.868;2022-10-03T09:36:43;4.63;;;2.90;;
6828;SDS011;17930;48.592;8.868;2022-10-03T09:51:50;4.60;;;2.40;;
6828;SDS011;17930;48.592;8.868;2022-10-03T09:57:35;3.10;;;2.00;;
6828;SDS011;17930;48.592;8.868;2022-10-03T10:00:26;3.00;;;2.40;;
6828;SDS011;17930;48.592;8.868;2022-10-03T10:03:11;3.23;;;2.33;;
6828;SDS011;17930;48.592;8.868;2022-10-03T10:09:21;4.23;;;1.90;;
6828;SDS011;17930;48.592;8.868;2022-10-03T10:18:37;1.80;;;1.60;;
6828;SDS011;17930;48.592;8.868;2022-10-03T10:30:33;1.83;;;1.53;;
6828;SDS011;17930;48.592;8.868;2022-10-03T10:33:47;2.93;;;1.33;;
6828;SDS011;17930;48.592;8.868;2022-10-03T10:39:55;1.67;;;1.27;;
6828;SDS011;17930;48.592;8.868;2022-10-03T10:46:01;2.00;;;1.27;;
6828;SDS011;17930;48.592;8.868;2022-10-03T11:01:12;2.53;;;1.80;;
6828;SDS011;17930;48.592;8.868;2022-10-03T11:04:12;2.93;;;1.70;;
6828;SDS011;17930;48.592;8.868;2022-10-03T11:07:03;36.10;;;14.43;;
6828;SDS011;17930;48.592;8.868;2022-10-03T11:09:51;2.33;;;1.70;;
6828;SDS011;17930;48.592;8.868;2022-10-03T11:13:08;1.40;;;1.30;;
6828;SDS011;17930;48.592;8.868;2022-10-03T11:26:02;56.77;;;7.97;;
6828;SDS011;17930;48.592;8.868;2022-10-03T11:29:01;1.87;;;1.60;;
6828;SDS011;17930;48.592;8.868;2022-10-03T11:32:02;1.70;;;1.53;;
6828;SDS011;17930;48.592;8.868;2022-10-03T11:34:58;2.57;;;1.50;;
6828;SDS011;17930;48.592;8.868;2022-10-03T11:37:42;2.13;;;1.73;;
6828;SDS011;17930;48.592;8.868;2022-10-03T11:40:28;2.20;;;1.67;;
6828;SDS011;17930;48.592;8.868;2022-10-03T11:49:11;1.97;;;1.77;;
6828;SDS011;17930;48.592;8.868;2022-10-03T11:51:53;2.07;;;1.60;;
6828;SDS011;17930;48.592;8.868;2022-10-03T11:54:32;3.67;;;1.90;;
6828;SDS011;17930;48.592;8.868;2022-10-03T11:57:05;4.50;;;2.97;;
6828;SDS011;17930;48.592;8.868;2022-10-03T11:59:37;4.53;;;2.43;;
6828;SDS011;17930;48.592;8.868;2022-10-03T12:02:24;4.17;;;1.90;;
6828;SDS011;17930;48.592;8.868;2022-10-03T12:05:06;3.93;;;2.23;;
6828;SDS011;17930;48.592;8.868;2022-10-03T12:07:44;2.00;;;1.90;;
6828;SDS011;17930;48.592;8.868;2022-10-03T12:10:40;3.33;;;1.80;;
6828;SDS011;17930;48.592;8.868;2022-10-03T12:13:16;3.13;;;2.23;;
6828;SDS011;17930;48.592;8.868;2022-10-03T12:15:53;5.10;;;1.93;;
6828;SDS011;17930;48.592;8.868;2022-10-03T12:18:36;1.80;;;1.40;;
6828;SDS011;17930;48.592;8.868;2022-10-03T12:21:21;1.10;;;1.00;;
6828;SDS011;17930;48.592;8.868;2022-10-03T12:23:55;1.20;;;1.10;;
6828;SDS011;17930;48.592;8.868;2022-10-03T12:26:40;1.57;;;1.30;;
6828;SDS011;17930;48.592;8.868;2022-10-03T12:29:16;2.20;;;1.30;;
6828;SDS011;17930;48.592;8.868;2022-10-03T12:31:55;1.50;;;1.20;;
6828;SDS011;17930;48.592;8.868;2022-10-03T12:34:37;1.20;;;1.10;;
6828;SDS011;17930;48.592;8.868;2022-10-03T12:37:24;1.40;;;1.30;;
6828;SDS011;17930;48.592;8.868;2022-10-03T12:40:00;1.20;;;1.00;;
6828;SDS011;17930;48.592;8.868;2022-10-03T12:42:32;1.40;;;1.10;;
6828;SDS011;17930;48.592;8.868;2022-10-03T12:45:07;2.00;;;1.57;;
6828;SDS011;17930;48.592;8.868;2022-10-03T12:47:50;2.00;;;1.10;;
6828;SDS011;17930;48.592;8.868;2022-10-03T12:50:54;1.40;;;1.17;;
6828;SDS011;17930;48.592;8.868;2022-10-03T12:53:32;1.33;;;1.03;;
6828;SDS011;17930;48.592;8.868;2022-10-03T12:56:10;2.43;;;1.27;;
6828;SDS011;17930;48.592;8.868;2022-10-03T12:58:47;1.27;;;1.17;;
6828;SDS011;17930;48.592;8.868;2022-10-03T13:01:23;1.80;;;1.37;;
6828;SDS011;17930;48.592;8.868;2022-10-03T13:04:00;1.70;;;1.27;;
6828;SDS011;17930;48.592;8.868;2022-10-03T13:06:42;2.27;;;1.37;;
6828;SDS011;17930;48.592;8.868;2022-10-03T13:09:20;1.77;;;1.40;;
6828;SDS011;17930;48.592;8.868;2022-10-03T13:11:58;1.63;;;1.53;;
6828;SDS011;17930;48.592;8.868;2022-10-03T13:14:35;1.93;;;1.30;;
6828;SDS011;17930;48.592;8.868;2022-10-03T13:17:28;1.43;;;1.33;;
6828;SDS011;17930;48.592;8.868;2022-10-03T13:20:04;2.30;;;1.90;;
6828;SDS011;17930;48.592;8.868;2022-10-03T13:22:42;1.87;;;1.40;;
6828;SDS011;17930;48.592;8.868;2022-10-03T13:25:13;2.73;;;1.10;;
6828;SDS011;17930;48.592;8.868;2022-10-03T13:27:46;1.93;;;1.40;;
6828;SDS011;17930;48.592;8.868;2022-10-03T13:30:19;1.23;;;1.13;;
6828;SDS011;17930;48.592;8.868;2022-10-03T13:32:50;1.30;;;1.10;;
6828;SDS011;17930;48.592;8.868;2022-10-03T13:35:24;1.47;;;1.23;;
6828;SDS011;17930;48.592;8.868;2022-10-03T13:41:23;3.23;;;1.40;;
6828;SDS011;17930;48.592;8.868;2022-10-03T13:43:58;2.13;;;1.83;;
6828;SDS011;17930;48.592;8.868;2022-10-03T13:46:28;1.90;;;1.33;;
6828;SDS011;17930;48.592;8.868;2022-10-03T13:49:03;3.60;;;2.20;;
6828;SDS011;17930;48.592;8.868;2022-10-03T13:51:40;3.13;;;2.30;;
6828;SDS011;17930;48.592;8.868;2022-10-03T13:54:15;3.87;;;2.70;;
6828;SDS011;17930;48.592;8.868;2022-10-03T13:56:49;2.53;;;1.40;;
6828;SDS011;17930;48.592;8.868;2022-10-03T13:59:26;2.60;;;1.80;;
6828;SDS011;17930;48.592;8.868;2022-10-03T14:02:13;1.47;;;1.37;;
6828;SDS011;17930;48.592;8.868;2022-10-03T14:04:57;2.67;;;2.13;;
6828;SDS011;17930;48.592;8.868;2022-10-03T14:07:51;2.00;;;1.70;;
6828;SDS011;17930;48.592;8.868;2022-10-03T14:10:43;2.80;;;1.57;;
6828;SDS011;17930;48.592;8.868;2022-10-03T14:13:31;2.00;;;1.67;;
6828;SDS011;17930;48.592;8.868;2022-10-03T14:16:10;1.50;;;1.40;;
6828;SDS011;17930;48.592;8.868;2022-10-03T14:18:47;2.70;;;1.57;;
6828;SDS011;17930;48.592;8.868;2022-10-03T14:21:26;3.00;;;1.73;;
6828;SDS011;17930;48.592;8.868;2022-10-03T14:24:07;2.00;;;1.60;;
6828;SDS011;17930;48.592;8.868;2022-10-03T14:26:48;2.23;;;1.10;;
6828;SDS011;17930;48.592;8.868;2022-10-03T14:29:23;2.30;;;1.40;;
6828;SDS011;17930;48.592;8.868;2022-10-03T14:31:58;1.23;;;1.07;;
6828;SDS011;17930;48.592;8.868;2022-10-03T14:34:33;2.57;;;1.17;;
6828;SDS011;17930;48.592;8.868;2022-10-03T14:37:13;2.00;;;1.23;;
6828;SDS011;17930;48.592;8.868;2022-10-03T14:39:52;0.90;;;0.90;;
6828;SDS011;17930;48.592;8.868;2022-10-03T14:42:36;2.50;;;1.00;;
6828;SDS011;17930;48.592;8.868;2022-10-03T14:45:15;0.93;;;0.93;;
6828;SDS011;17930;48.592;8.868;2022-10-03T14:47:46;1.43;;;1.20;;
6828;SDS011;17930;48.592;8.868;2022-10-03T14:50:16;2.67;;;1.30;;
6828;SDS011;17930;48.592;8.868;2022-10-03T14:52:47;0.93;;;0.80;;
6828;SDS011;17930;48.592;8.868;2022-10-03T14:55:19;2.60;;;1.10;;
6828;SDS011;17930;48.592;8.868;2022-10-03T14:57:51;1.27;;;0.97;;
6828;SDS011;17930;48.592;8.868;2022-10-03T15:00:26;2.33;;;1.40;;
6828;SDS011;17930;48.592;8.868;2022-10-03T15:03:22;1.40;;;1.30;;
6828;SDS011;17930;48.592;8.868;2022-10-03T15:05:59;1.30;;;1.20;;
6828;SDS011;17930;48.592;8.868;2022-10-03T15:08:29;1.93;;;1.23;;
6828;SDS011;17930;48.592;8.868;2022-10-03T15:11:03;1.10;;;1.00;;
6828;SDS011;17930;48.592;8.868;2022-10-03T15:13:33;1.90;;;1.17;;
6828;SDS011;17930;48.592;8.868;2022-10-03T15:16:06;1.63;;;1.00;;
6828;SDS011;17930;48.592;8.868;2022-10-03T15:18:35;1.43;;;1.33;;
6828;SDS011;17930;48.592;8.868;2022-10-03T15:21:03;2.80;;;1.30;;
6828;SDS011;17930;48.592;8.868;2022-10-03T15:23:40;2.70;;;1.97;;
6828;SDS011;17930;48.592;8.868;2022-10-03T15:26:10;2.37;;;1.57;;
6828;SDS011;17930;48.592;8.868;2022-10-03T15:28:45;2.90;;;2.07;;
6828;SDS011;17930;48.592;8.868;2022-10-03T15:31:17;3.90;;;1.40;;
6828;SDS011;17930;48.592;8.868;2022-10-03T15:33:57;1.73;;;1.10;;
6828;SDS011;17930;48.592;8.868;2022-10-03T15:36:28;1.30;;;1.17;;
6828;SDS011;17930;48.592;8.868;2022-10-03T15:39:00;1.33;;;1.23;;
6828;SDS011;17930;48.592;8.868;2022-10-03T15:41:31;2.47;;;1.40;;
6828;SDS011;17930;48.592;8.868;2022-10-03T15:44:03;3.10;;;1.20;;
6828;SDS011;17930;48.592;8.868;2022-10-03T15:46:39;2.13;;;1.33;;
6828;SDS011;17930;48.592;8.868;2022-10-03T15:49:20;2.27;;;1.80;;
6828;SDS011;17930;48.592;8.868;2022-10-03T15:51:50;3.17;;;1.50;;
6828;SDS011;17930;48.592;8.868;2022-10-03T15:54:30;1.47;;;1.37;;
6828;SDS011;17930;48.592;8.868;2022-10-03T15:57:23;2.53;;;1.60;;
6828;SDS011;17930;48.592;8.868;2022-10-03T16:00:04;1.33;;;1.20;;
6828;SDS011;17930;48.592;8.868;2022-10-03T16:02:35;4.07;;;1.63;;
6828;SDS011;17930;48.592;8.868;2022-10-03T16:05:13;2.00;;;1.43;;
6828;SDS011;17930;48.592;8.868;2022-10-03T16:07:48;1.10;;;1.00;;
6828;SDS011;17930;48.592;8.868;2022-10-03T16:10:28;1.90;;;1.33;;
6828;SDS011;17930;48.592;8.868;2022-10-03T16:13:03;2.47;;;1.33;;
6828;SDS011;17930;48.592;8.868;2022-10-03T16:15:47;1.97;;;1.30;;
6828;SDS011;17930;48.592;8.868;2022-10-03T16:21:21;2.43;;;1.23;;
6828;SDS011;17930;48.592;8.868;2022-10-03T16:23:56;4.10;;;1.40;;
6828;SDS011;17930;48.592;8.868;2022-10-03T16:26:25;1.87;;;1.73;;
6828;SDS011;17930;48.592;8.868;2022-10-03T16:28:56;1.67;;;1.40;;
6828;SDS011;17930;48.592;8.868;2022-10-03T16:31:36;3.57;;;1.90;;
6828;SDS011;17930;48.592;8.868;2022-10-03T16:34:11;2.43;;;2.10;;
6828;SDS011;17930;48.592;8.868;2022-10-03T16:36:40;1.77;;;1.37;;
6828;SDS011;17930;48.592;8.868;2022-10-03T16:39:14;1.43;;;1.13;;
6828;SDS011;17930;48.592;8.868;2022-10-03T16:41:46;2.97;;;1.40;;
6828;SDS011;17930;48.592;8.868;2022-10-03T16:44:19;2.27;;;1.20;;
6828;SDS011;17930;48.592;8.868;2022-10-03T16:46:52;1.87;;;1.40;;
6828;SDS011;17930;48.592;8.868;2022-10-03T16:49:33;3.30;;;1.70;;
6828;SDS011;17930;48.592;8.868;2022-10-03T16:52:22;2.10;;;1.90;;
6828;SDS011;17930;48.592;8.868;2022-10-03T16:54:58;2.23;;;1.40;;
6828;SDS011;17930;48.592;8.868;2022-10-03T16:57:29;2.30;;;1.23;;
6828;SDS011;17930;48.592;8.868;2022-10-03T17:00:01;1.47;;;1.23;;
6828;SDS011;17930;48.592;8.868;2022-10-03T17:02:33;2.23;;;1.90;;
6828;SDS011;17930;48.592;8.868;2022-10-03T17:05:04;1.60;;;1.40;;
6828;SDS011;17930;48.592;8.868;2022-10-03T17:07:37;2.23;;;1.33;;
6828;SDS011;17930;48.592;8.868;2022-10-03T17:10:16;1.90;;;1.30;;
6828;SDS011;17930;48.592;8.868;2022-10-03T17:12:55;2.03;;;1.40;;
6828;SDS011;17930;48.592;8.868;2022-10-03T17:15:26;1.53;;;1.40;;
6828;SDS011;17930;48.592;8.868;2022-10-03T17:17:57;1.47;;;1.37;;
6828;SDS011;17930;48.592;8.868;2022-10-03T17:20:37;1.20;;;1.10;;
6828;SDS011;17930;48.592;8.868;2022-10-03T17:23:09;2.67;;;1.60;;
6828;SDS011;17930;48.592;8.868;2022-10-03T17:25:43;2.83;;;1.40;;
6828;SDS011;17930;48.592;8.868;2022-10-03T17:28:26;3.80;;;1.50;;
6828;SDS011;17930;48.592;8.868;2022-10-03T17:31:01;1.70;;;1.23;;
6828;SDS011;17930;48.592;8.868;2022-10-03T17:33:33;1.70;;;1.17;;
6828;SDS011;17930;48.592;8.868;2022-10-03T17:36:17;1.30;;;1.20;;
6828;SDS011;17930;48.592;8.868;2022-10-03T17:39:02;3.73;;;1.43;;
6828;SDS011;17930;48.592;8.868;2022-10-03T17:41:32;6.87;;;3.33;;
6828;SDS011;17930;48.592;8.868;2022-10-03T17:44:13;6.97;;;3.30;;
6828;SDS011;17930;48.592;8.868;2022-10-03T17:46:50;5.70;;;3.30;;
6828;SDS011;17930;48.592;8.868;2022-10-03T17:49:26;8.47;;;4.67;;
6828;SDS011;17930;48.592;8.868;2022-10-03T17:52:11;7.03;;;4.63;;
6828;SDS011;17930;48.592;8.868;2022-10-03T17:54:45;6.00;;;3.83;;
6828;SDS011;17930;48.592;8.868;2022-10-03T17:57:20;5.40;;;3.70;;
6828;SDS011;17930;48.592;8.868;2022-10-03T17:59:52;5.80;;;3.33;;
6828;SDS011;17930;48.592;8.868;2022-10-03T18:02:25;6.67;;;3.43;;
6828;SDS011;17930;48.592;8.868;2022-10-03T18:05:09;6.27;;;3.70;;
6828;SDS011;17930;48.592;8.868;2022-10-03T18:07:39;5.87;;;3.30;;
6828;SDS011;17930;48.592;8.868;2022-10-03T18:10:17;7.03;;;3.80;;
6828;SDS011;17930;48.592;8.868;2022-10-03T18:12:52;7.37;;;3.73;;
6828;SDS011;17930;48.592;8.868;2022-10-03T18:15:32;6.57;;;3.67;;
6828;SDS011;17930;48.592;8.868;2022-10-03T18:18:25;8.97;;;5.20;;
6828;SDS011;17930;48.592;8.868;2022-10-03T18:21:48;8.90;;;4.43;;
6828;SDS011;17930;48.592;8.868;2022-10-03T18:25:17;6.83;;;3.97;;
6828;SDS011;17930;48.592;8.868;2022-10-03T18:32:10;10.90;;;5.33;;
6828;SDS011;17930;48.592;8.868;2022-10-03T18:35:11;9.33;;;4.83;;
6828;SDS011;17930;48.592;8.868;2022-10-03T18:40:51;6.93;;;3.93;;
6828;SDS011;17930;48.592;8.868;2022-10-03T18:43:31;8.53;;;4.00;;
6828;SDS011;17930;48.592;8.868;2022-10-03T18:46:18;10.97;;;5.27;;
6828;SDS011;17930;48.592;8.868;2022-10-03T18:48:57;8.23;;;4.90;;
6828;SDS011;17930;48.592;8.868;2022-10-03T18:51:31;11.00;;;5.63;;
6828;SDS011;17930;48.592;8.868;2022-10-03T18:54:06;12.77;;;5.90;;
6828;SDS011;17930;48.592;8.868;2022-10-03T18:56:45;11.20;;;5.33;;
6828;SDS011;17930;48.592;8.868;2022-10-03T18:59:42;17.53;;;8.50;;
6828;SDS011;17930;48.592;8.868;2022-10-03T19:02:22;9.53;;;5.73;;
6828;SDS011;17930;48.592;8.868;2022-10-03T19:04:53;10.23;;;5.60;;
6828;SDS011;17930;48.592;8.868;2022-10-03T19:07:23;13.57;;;7.30;;
6828;SDS011;17930;48.592;8.868;2022-10-03T19:13:02;9.43;;;4.63;;
6828;SDS011;17930;48.592;8.868;2022-10-03T19:15:40;5.17;;;4.17;;
6828;SDS011;17930;48.592;8.868;2022-10-03T19:18:17;7.57;;;4.13;;
6828;SDS011;17930;48.592;8.868;2022-10-03T19:20:48;8.53;;;4.23;;
6828;SDS011;17930;48.592;8.868;2022-10-03T19:23:18;8.97;;;5.03;;
6828;SDS011;17930;48.592;8.868;2022-10-03T19:25:55;6.00;;;4.57;;
6828;SDS011;17930;48.592;8.868;2022-10-03T19:28:27;8.13;;;4.00;;
6828;SDS011;17930;48.592;8.868;2022-10-03T19:30:57;7.47;;;3.77;;
6828;SDS011;17930;48.592;8.868;2022-10-03T19:33:28;4.63;;;3.90;;
6828;SDS011;17930;48.592;8.868;2022-10-03T19:35:59;5.93;;;3.70;;
6828;SDS011;17930;48.592;8.868;2022-10-03T19:38:30;7.77;;;3.73;;
6828;SDS011;17930;48.592;8.868;2022-10-03T19:41:05;6.77;;;3.83;;
6828;SDS011;17930;48.592;8.868;2022-10-03T19:43:40;9.13;;;4.30;;
6828;SDS011;17930;48.592;8.868;2022-10-03T19:46:14;7.63;;;5.00;;
6828;SDS011;17930;48.592;8.868;2022-10-03T19:48:48;11.43;;;6.50;;
6828;SDS011;17930;48.592;8.868;2022-10-03T19:51:21;11.10;;;6.30;;
6828;SDS011;17930;48.592;8.868;2022-10-03T19:53:53;27.43;;;13.67;;